Time;durP1;ratioP1;P1;durP2;ratioP2;P2;SDS_P1;SDS_P2;PMS_P1;PMS_P2;Temp;Humidity;BMP_temperature;BMP_pressure;BME280_temperature;BME280_humidity;BME280_pressure;Samples;Min_cycle;Max_cycle;Signal;HPM_P1;HPM_P2
2022/03/22 00:01:43;;;;;;;;;101.25;89.75;;;;;8.48;28.36;101233.44;5127109;27;11871;-70
2022/03/22 00:04:12;;;;;;;;;99.75;90.50;;;;;8.44;28.66;101236.75;5128308;27;11252;-71
2022/03/22 00:06:42;;;;;;;;;111.25;105.75;;;;;8.41;29.22;101234.00;5092502;27;11567;-70
2022/03/22 00:09:11;;;;;;;;;105.00;97.00;;;;;8.37;29.19;101237.34;5122242;27;11523;-71
2022/03/22 00:11:40;;;;;;;;;111.00;100.75;;;;;8.35;28.84;101233.81;5108243;28;11696;-70
2022/03/22 00:14:10;;;;;;;;;114.25;108.00;;;;;8.32;28.91;101231.13;5107952;28;11551;-72
2022/03/22 00:16:38;;;;;;;;;118.50;102.50;;;;;8.27;29.27;101243.94;5064702;28;11686;-71
2022/03/22 00:19:28;;;;;;;;;123.50;110.25;;;;;8.22;29.50;101244.59;5064627;28;11666;-70
2022/03/22 00:21:56;;;;;;;;;119.75;109.50;;;;;8.17;29.60;101236.63;5047671;28;11541;-72
2022/03/22 00:24:25;;;;;;;;;114.75;103.75;;;;;8.13;29.80;101242.56;5064677;28;11592;-71
2022/03/22 00:26:54;;;;;;;;;121.50;106.50;;;;;8.08;29.77;101237.16;5063943;28;11641;-72
2022/03/22 00:29:24;;;;;;;;;119.50;113.75;;;;;8.03;29.61;101236.09;5014993;28;11579;-72
2022/03/22 00:31:53;;;;;;;;;123.25;111.75;;;;;7.98;29.99;101235.94;5064572;28;11675;-71
2022/03/22 00:34:23;;;;;;;;;105.25;95.00;;;;;7.96;29.58;101239.34;5064808;28;11587;-72
2022/03/22 00:36:52;;;;;;;;;124.00;112.25;;;;;7.91;30.08;101244.34;5048655;28;12436;-70
2022/03/22 00:39:21;;;;;;;;;128.75;117.25;;;;;7.87;30.01;101250.25;5048141;28;11657;-72
2022/03/22 00:41:50;;;;;;;;;119.00;111.50;;;;;7.84;30.78;101249.25;5047913;28;11694;-72
2022/03/22 00:44:22;;;;;;;;;127.75;119.25;;;;;7.79;31.01;101249.97;5047057;28;12463;-71
2022/03/22 00:46:54;;;;;;;;;128.50;118.50;;;;;7.73;31.31;101244.53;5020510;28;11767;-72
2022/03/22 00:49:24;;;;;;;;;137.75;125.50;;;;;7.69;30.85;101247.81;5088331;28;11780;-71
2022/03/22 00:51:53;;;;;;;;;121.25;111.00;;;;;7.63;31.01;101252.78;5071066;28;11645;-71
2022/03/22 00:54:21;;;;;;;;;135.00;126.25;;;;;7.59;31.13;101246.56;5054725;28;11623;-72
2022/03/22 00:56:54;;;;;;;;;117.50;112.25;;;;;7.55;31.02;101249.00;5070883;28;11665;-72
2022/03/22 01:02:10;;;;;;;;;119.50;109.00;;;;;7.45;30.94;101246.84;5038145;28;11647;-70
2022/03/22 01:04:39;;;;;;;;;117.00;107.75;;;;;7.40;30.80;101249.28;5088147;28;11887;-71
2022/03/22 01:07:07;;;;;;;;;115.25;103.50;;;;;7.36;30.87;101248.28;5070921;28;11548;-72
2022/03/22 01:09:36;;;;;;;;;120.00;109.25;;;;;7.31;31.34;101241.13;5044860;27;12389;-71
2022/03/22 01:12:06;;;;;;;;;112.50;104.50;;;;;7.28;31.05;101241.91;5078857;27;13169;-71
2022/03/22 01:14:34;;;;;;;;;113.00;97.00;;;;;7.22;31.18;101242.53;5113158;27;11578;-71
2022/03/22 01:17:03;;;;;;;;;106.00;95.25;;;;;7.16;31.68;101233.59;5112052;27;11563;-73
2022/03/22 01:19:34;;;;;;;;;107.50;96.75;;;;;7.13;31.13;101225.72;5131305;27;11568;-71
2022/03/22 01:22:03;;;;;;;;;115.50;101.75;;;;;7.10;31.52;101230.78;5131120;27;11569;-72
2022/03/22 01:24:32;;;;;;;;;107.25;95.50;;;;;7.04;31.46;101221.03;5132309;27;11549;-72
2022/03/22 01:27:01;;;;;;;;;114.75;101.75;;;;;7.01;31.50;101228.69;5113943;27;11646;-74
2022/03/22 01:29:29;;;;;;;;;107.25;97.25;;;;;6.97;31.72;101227.66;5131694;27;11561;-71
2022/03/22 01:31:59;;;;;;;;;105.25;93.00;;;;;6.94;31.68;101232.75;5131136;27;11559;-72
2022/03/22 01:34:28;;;;;;;;;105.25;96.25;;;;;6.91;31.51;101234.31;5101454;28;11245;-74
2022/03/22 01:36:58;;;;;;;;;104.50;89.75;;;;;6.83;31.40;101224.50;5092517;28;11554;-70
2022/03/22 01:39:27;;;;;;;;;103.50;91.50;;;;;6.79;31.57;101224.34;5110295;28;12024;-71
2022/03/22 01:41:55;;;;;;;;;106.25;92.75;;;;;6.75;31.65;101227.63;5092128;28;11706;-71
2022/03/22 01:44:24;;;;;;;;;106.00;88.00;;;;;6.70;31.93;101224.81;5092193;28;11577;-71
2022/03/22 01:46:58;;;;;;;;;107.00;92.00;;;;;6.66;31.92;101224.63;5091992;28;12340;-72
2022/03/22 01:49:27;;;;;;;;;93.50;74.25;;;;;6.60;32.11;101220.94;5108694;27;11302;-72
2022/03/22 01:51:58;;;;;;;;;100.25;89.50;;;;;6.57;32.38;101220.81;5110032;28;11089;-72
2022/03/22 01:54:26;;;;;;;;;103.00;90.50;;;;;6.55;32.42;101219.84;5110149;28;11944;-70
2022/03/22 01:56:55;;;;;;;;;103.00;87.00;;;;;6.54;32.37;101219.78;5109716;28;12171;-71
2022/03/22 01:59:23;;;;;;;;;101.75;86.25;;;;;6.53;32.00;101221.50;5091994;28;11179;-72
2022/03/22 02:07:31;;;;;;;;;95.75;76.25;;;;;6.46;32.22;101226.34;5066717;28;10862;-73
2022/03/22 02:09:59;;;;;;;;;98.00;75.75;;;;;6.42;32.08;101220.16;5034216;28;10997;-73
2022/03/22 02:12:28;;;;;;;;;93.75;72.75;;;;;6.24;32.44;101228.91;5050292;28;10732;-71
2022/03/22 02:14:56;;;;;;;;;97.00;78.75;;;;;6.24;32.52;101230.63;5068119;28;10741;-71
2022/03/22 02:17:25;;;;;;;;;92.25;74.00;;;;;6.23;32.54;101228.84;5086912;28;10728;-71
2022/03/22 02:19:54;;;;;;;;;100.25;85.25;;;;;6.23;32.55;101216.75;5086913;28;10591;-71
2022/03/22 02:22:34;;;;;;;;;89.75;71.00;;;;;6.25;32.57;101217.72;5086726;28;10753;-71
2022/03/22 02:25:04;;;;;;;;;88.75;71.50;;;;;6.25;32.50;101217.72;5067238;28;10560;-73
2022/03/22 02:27:34;;;;;;;;;94.75;74.75;;;;;6.24;32.73;101217.66;5066472;28;11278;-70
2022/03/22 02:30:04;;;;;;;;;93.50;74.50;;;;;6.23;32.71;101221.94;5071612;28;10985;-71
2022/03/22 02:32:33;;;;;;;;;96.50;80.50;;;;;6.22;32.77;101217.59;5099241;27;10600;-72
2022/03/22 02:35:02;;;;;;;;;97.75;79.00;;;;;6.22;32.42;101227.94;5112125;27;10546;-72
2022/03/22 02:37:30;;;;;;;;;95.00;71.50;;;;;6.22;32.50;101216.72;5112130;27;10694;-71
2022/03/22 02:39:59;;;;;;;;;98.75;79.00;;;;;6.22;32.37;101215.00;5115209;27;10732;-73
2022/03/22 02:42:29;;;;;;;;;100.75;80.50;;;;;6.22;32.55;101217.59;5109693;28;10421;-73
2022/03/22 02:44:57;;;;;;;;;98.50;76.25;;;;;6.22;32.48;101227.06;5107854;28;10436;-72
2022/03/22 02:47:26;;;;;;;;;95.75;74.50;;;;;6.21;32.50;101210.63;5109341;28;10639;-72
2022/03/22 02:49:55;;;;;;;;;97.00;78.50;;;;;6.21;32.71;101223.56;5107999;28;10382;-70
2022/03/22 02:52:23;;;;;;;;;101.50;81.25;;;;;6.18;32.57;101220.88;5108773;28;10869;-71
2022/03/22 02:54:52;;;;;;;;;96.25;75.75;;;;;6.16;32.66;101222.50;5072991;27;10588;-72
2022/03/22 02:57:21;;;;;;;;;90.50;70.75;;;;;6.14;32.25;101226.72;5109359;28;10641;-71
2022/03/22 02:59:51;;;;;;;;;97.00;75.00;;;;;6.02;32.82;101226.19;5090579;28;10615;-71
2022/03/22 03:02:20;;;;;;;;;99.25;82.75;;;;;6.01;32.53;101225.28;5109298;28;10833;-71
2022/03/22 03:04:48;;;;;;;;;87.00;72.00;;;;;6.03;32.58;101220.16;5108754;28;11239;-73
2022/03/22 03:07:17;;;;;;;;;97.00;78.25;;;;;5.92;33.10;101230.03;5040547;28;10843;-70
2022/03/22 03:09:45;;;;;;;;;104.50;87.00;;;;;5.77;33.19;101226.75;5108958;28;11501;-72
2022/03/22 03:12:14;;;;;;;;;98.00;81.25;;;;;5.76;33.63;101225.81;5110982;27;10835;-72
2022/03/22 03:14:43;;;;;;;;;99.00;78.25;;;;;5.81;33.19;101229.53;5107674;28;10564;-73
2022/03/22 03:17:15;;;;;;;;;100.50;79.00;;;;;5.83;33.09;101227.00;5109117;28;10598;-72
2022/03/22 03:19:44;;;;;;;;;99.75;80.25;;;;;5.83;33.47;101230.47;5057090;28;10759;-72
2022/03/22 03:22:12;;;;;;;;;104.50;87.25;;;;;5.83;33.34;101230.47;5108690;28;10784;-72
2022/03/22 03:24:41;;;;;;;;;103.50;84.25;;;;;5.84;33.44;101234.84;5108585;28;10491;-71
2022/03/22 03:27:09;;;;;;;;;74.75;54.75;;;;;5.84;33.33;101229.69;5108702;28;10841;-71
2022/03/22 03:29:38;;;;;;;;;104.25;84.00;;;;;5.84;33.03;101227.09;5108059;27;11858;-72
2022/03/22 03:32:07;;;;;;;;;100.75;81.75;;;;;5.84;33.78;101228.75;5108953;28;10741;-73
2022/03/22 03:34:38;;;;;;;;;104.00;90.75;;;;;5.84;33.62;101233.94;5089065;28;11017;-72
2022/03/22 03:37:07;;;;;;;;;103.00;88.50;;;;;5.82;33.35;101227.81;5108772;28;11116;-72
2022/03/22 03:39:38;;;;;;;;;105.50;88.00;;;;;5.79;33.92;101227.69;5108455;28;10812;-71
2022/03/22 03:42:07;;;;;;;;;104.50;88.75;;;;;5.75;34.14;101230.97;5109004;28;10965;-73
2022/03/22 03:47:34;;;;;;;;;106.00;90.75;;;;;5.68;33.95;101237.53;5040288;28;11029;-71
2022/03/22 03:50:07;;;;;;;;;107.25;87.25;;;;;5.67;34.35;101233.16;5028310;28;11235;-70
2022/03/22 03:52:38;;;;;;;;;104.00;87.50;;;;;5.66;34.20;101234.00;5044730;28;10973;-73
2022/03/22 03:55:08;;;;;;;;;103.50;86.00;;;;;5.66;34.22;101237.47;5036201;28;10985;-72
2022/03/22 03:57:37;;;;;;;;;103.75;85.50;;;;;5.62;34.05;101232.97;4976939;28;11072;-71
2022/03/22 04:00:08;;;;;;;;;108.50;84.75;;;;;5.63;34.06;101239.00;5008472;28;10655;-72
2022/03/22 04:02:42;;;;;;;;;106.00;87.50;;;;;5.61;34.14;101243.22;5025308;28;10748;-72
2022/03/22 04:05:13;;;;;;;;;107.50;96.00;;;;;5.62;34.12;101252.78;5037913;28;11651;-72
2022/03/22 04:07:41;;;;;;;;;104.75;92.50;;;;;5.56;34.61;101237.88;5045103;28;10900;-71
2022/03/22 04:10:10;;;;;;;;;104.50;85.75;;;;;5.55;33.94;101242.97;4995990;28;10966;-71
2022/03/22 04:12:43;;;;;;;;;101.00;84.75;;;;;5.55;34.39;101241.25;5030279;28;10918;-70
2022/03/22 04:15:12;;;;;;;;;110.00;98.75;;;;;5.54;34.37;101244.66;5040219;28;10933;-72
2022/03/22 04:17:41;;;;;;;;;111.25;99.00;;;;;5.52;34.29;101248.88;5028808;28;11389;-71
2022/03/22 04:20:11;;;;;;;;;109.50;97.25;;;;;5.50;34.85;101250.50;5031002;28;11705;-72
2022/03/22 04:22:41;;;;;;;;;108.75;97.50;;;;;5.50;34.64;101255.69;5060664;28;11303;-71
2022/03/22 04:25:10;;;;;;;;;103.00;87.25;;;;;5.49;34.41;101255.63;5093202;28;11190;-71
2022/03/22 04:33:22;;;;;;;;;109.50;93.50;;;;;5.37;34.53;101255.88;5072104;28;11151;-72
2022/03/22 04:35:51;;;;;;;;;109.50;94.75;;;;;5.35;35.25;101254.94;5055468;28;11990;-70
2022/03/22 04:38:21;;;;;;;;;106.75;90.75;;;;;5.34;35.08;101261.81;5065339;28;11286;-70
2022/03/22 04:40:50;;;;;;;;;106.75;89.50;;;;;5.33;34.97;101261.72;5032128;28;12198;-73
2022/03/22 04:43:21;;;;;;;;;104.50;90.00;;;;;5.33;35.33;101264.31;5048557;28;11335;-71
2022/03/22 04:45:50;;;;;;;;;106.50;90.00;;;;;5.32;35.11;101255.69;5048143;28;11185;-70
2022/03/22 04:48:19;;;;;;;;;108.75;94.50;;;;;5.32;35.22;101266.03;5067457;28;11352;-72
2022/03/22 04:50:48;;;;;;;;;111.25;97.00;;;;;5.32;35.25;101265.16;5088105;28;11274;-71
2022/03/22 04:58:52;;;;;;;;;110.25;95.00;;;;;5.37;35.23;101268.81;5008265;28;11804;-73
2022/03/22 05:01:21;;;;;;;;;113.75;106.75;;;;;5.39;35.30;101269.81;5008239;28;11592;-74
2022/03/22 05:03:50;;;;;;;;;117.25;105.75;;;;;5.40;35.26;101269.84;5011261;28;11600;-71
2022/03/22 05:06:28;;;;;;;;;118.50;102.25;;;;;5.40;34.81;101269.84;5061489;28;11611;-70
2022/03/22 05:08:58;;;;;;;;;109.25;95.75;;;;;5.45;35.13;101273.56;5068512;28;11634;-73
2022/03/22 05:11:27;;;;;;;;;111.00;100.00;;;;;5.48;35.18;101275.41;5066963;28;11672;-70
2022/03/22 05:13:56;;;;;;;;;105.75;86.75;;;;;5.53;34.87;101273.94;5018999;28;11575;-72
2022/03/22 05:16:25;;;;;;;;;107.25;96.50;;;;;5.60;34.96;101275.13;5067818;28;11629;-71
2022/03/22 05:18:55;;;;;;;;;136.50;116.00;;;;;5.63;35.03;101273.56;5067299;28;11284;-73
2022/03/22 05:21:25;;;;;;;;;120.50;110.00;;;;;5.67;34.74;101274.56;5067564;28;11758;-71
2022/03/22 05:23:55;;;;;;;;;113.00;100.25;;;;;5.71;34.67;101276.50;5067253;28;11724;-72
2022/03/22 05:26:24;;;;;;;;;109.25;99.25;;;;;5.75;34.68;101274.97;5080526;28;12046;-73
2022/03/22 05:28:54;;;;;;;;;110.00;97.50;;;;;5.82;34.43;101266.63;5083784;28;11591;-73
2022/03/22 05:31:23;;;;;;;;;119.75;102.75;;;;;5.84;34.50;101260.75;5085541;28;11704;-72
2022/03/22 05:33:53;;;;;;;;;125.25;107.25;;;;;5.93;34.89;101267.16;5103361;27;11543;-72
2022/03/22 05:36:22;;;;;;;;;123.50;108.50;;;;;5.98;34.62;101263.97;5122426;27;11374;-72
2022/03/22 05:38:52;;;;;;;;;107.00;93.25;;;;;6.06;34.25;101264.34;5078032;27;11561;-70
2022/03/22 05:41:22;;;;;;;;;108.00;94.00;;;;;6.10;34.15;101253.28;5078511;27;11564;-71
2022/03/22 05:43:51;;;;;;;;;113.50;100.75;;;;;6.17;34.28;101257.94;5110698;27;11683;-72
2022/03/22 05:46:22;;;;;;;;;97.75;78.50;;;;;6.23;34.10;101270.28;5085929;28;11644;-71
2022/03/22 05:48:51;;;;;;;;;120.50;100.75;;;;;6.30;34.02;101274.03;5043022;28;11693;-73
2022/03/22 05:51:19;;;;;;;;;108.75;98.00;;;;;6.33;33.96;101276.75;5053763;28;11601;-73
2022/03/22 05:53:48;;;;;;;;;120.50;101.75;;;;;6.41;33.59;101272.81;5071961;28;11758;-71
2022/03/22 05:56:17;;;;;;;;;110.50;100.00;;;;;6.47;33.74;101275.66;5055226;28;12365;-72
2022/03/22 05:58:45;;;;;;;;;108.75;92.50;;;;;6.48;33.64;101274.84;5068938;28;11587;-72
2022/03/22 06:01:15;;;;;;;;;119.50;105.00;;;;;6.55;33.65;101265.63;5085940;28;11278;-74
2022/03/22 06:03:45;;;;;;;;;107.25;97.75;;;;;6.63;33.49;101259.97;5088022;28;11575;-71
2022/03/22 06:06:13;;;;;;;;;107.25;96.25;;;;;6.56;33.17;101264.81;5106840;28;11269;-72
2022/03/22 06:08:42;;;;;;;;;100.50;82.00;;;;;6.56;33.73;101268.31;5106860;28;11556;-71
2022/03/22 06:11:11;;;;;;;;;104.50;91.25;;;;;6.69;33.33;101267.13;5106389;28;11247;-72
2022/03/22 06:13:39;;;;;;;;;110.00;92.75;;;;;6.83;33.34;101273.78;5106241;28;11301;-71
2022/03/22 06:16:08;;;;;;;;;101.75;82.75;;;;;6.85;33.34;101266.06;5104283;28;11040;-71
2022/03/22 06:18:37;;;;;;;;;107.75;97.00;;;;;7.00;33.32;101268.41;5109163;27;11073;-71
2022/03/22 06:21:06;;;;;;;;;106.50;91.50;;;;;7.14;33.06;101267.25;5105143;27;11354;-71
2022/03/22 06:23:35;;;;;;;;;110.00;100.25;;;;;7.27;32.51;101276.44;5110903;27;11286;-71
2022/03/22 06:26:04;;;;;;;;;104.00;91.00;;;;;7.41;32.69;101264.03;5093812;27;11561;-70
2022/03/22 06:28:32;;;;;;;;;110.50;99.50;;;;;7.52;32.51;101260.13;5073890;27;11546;-72
2022/03/22 06:31:01;;;;;;;;;110.75;96.25;;;;;7.65;32.48;101260.63;5097723;28;11558;-71
2022/03/22 06:33:29;;;;;;;;;109.00;91.50;;;;;7.76;32.12;101260.22;5108774;28;11555;-71
2022/03/22 06:35:58;;;;;;;;;101.75;92.50;;;;;7.89;32.29;101261.56;5098482;27;11315;-71
2022/03/22 06:38:32;;;;;;;;;114.50;98.50;;;;;8.00;31.50;101262.00;5115297;27;11554;-70
2022/03/22 06:41:00;;;;;;;;;103.00;89.25;;;;;8.03;31.88;101264.69;5123212;27;11615;-70
2022/03/22 06:43:30;;;;;;;;;109.00;95.25;;;;;8.13;31.88;101263.34;5125941;27;12606;-72
2022/03/22 06:45:58;;;;;;;;;100.50;85.75;;;;;8.25;31.48;101263.78;5102039;27;11584;-71
2022/03/22 06:48:27;;;;;;;;;105.25;94.25;;;;;8.33;31.88;101261.44;5104659;28;11667;-69
2022/03/22 06:50:56;;;;;;;;;110.50;102.75;;;;;8.49;31.55;101261.22;5108081;28;11576;-69
2022/03/22 06:53:24;;;;;;;;;113.75;99.00;;;;;8.42;31.69;101269.63;5107215;27;11598;-71
2022/03/22 06:55:54;;;;;;;;;112.00;100.50;;;;;8.58;30.70;101271.94;5107251;27;11257;-69
2022/03/22 06:58:24;;;;;;;;;101.00;85.00;;;;;8.62;31.16;101277.25;5126995;27;11446;-71
2022/03/22 07:00:55;;;;;;;;;100.25;86.25;;;;;8.51;30.50;101282.94;5073723;27;11325;-70
2022/03/22 07:03:24;;;;;;;;;100.50;85.75;;;;;8.01;31.59;101276.72;5109929;27;11025;-69
2022/03/22 07:05:53;;;;;;;;;101.00;86.50;;;;;8.22;31.03;101284.44;5071765;27;11099;-70
2022/03/22 07:08:23;;;;;;;;;93.75;77.50;;;;;8.34;30.89;101276.25;5055448;27;10842;-71
2022/03/22 07:13:35;;;;;;;;;96.25;80.50;;;;;8.04;31.14;101275.97;5127705;27;10856;-70
2022/03/22 07:16:05;;;;;;;;;96.75;79.00;;;;;8.12;31.55;101272.81;5125882;27;10618;-71
2022/03/22 07:18:34;;;;;;;;;90.75;71.75;;;;;7.94;30.56;101280.81;5108208;28;10654;-72
2022/03/22 07:21:04;;;;;;;;;94.50;77.25;;;;;7.90;31.21;101278.03;5122772;27;10629;-69
2022/03/22 07:23:35;;;;;;;;;92.75;71.75;;;;;8.22;30.92;101278.38;5121550;27;10441;-69
2022/03/22 07:26:03;;;;;;;;;91.25;76.00;;;;;7.81;31.12;101274.28;5083189;28;10288;-69
2022/03/22 07:28:34;;;;;;;;;97.00;82.50;;;;;7.23;32.15;101287.53;5107470;28;10620;-70
2022/03/22 07:31:04;;;;;;;;;91.00;74.75;;;;;7.73;32.11;101280.88;5107885;28;10804;-70
2022/03/22 07:33:33;;;;;;;;;92.50;76.75;;;;;8.08;31.12;101283.06;5108189;28;11057;-70
2022/03/22 07:36:02;;;;;;;;;97.00;74.75;;;;;7.84;31.77;101280.41;5089964;28;10601;-68
2022/03/22 07:38:30;;;;;;;;;91.25;75.25;;;;;8.03;31.44;101280.28;5107934;28;11281;-68
2022/03/22 07:40:59;;;;;;;;;96.75;82.25;;;;;8.03;30.86;101276.78;5108064;28;10678;-68
2022/03/22 07:43:30;;;;;;;;;100.25;84.00;;;;;7.75;32.05;101279.25;5056250;28;10615;-71
2022/03/22 07:45:58;;;;;;;;;92.00;73.75;;;;;7.22;32.96;101283.16;5123256;27;10986;-69
2022/03/22 07:48:28;;;;;;;;;95.75;81.75;;;;;7.16;32.93;101285.50;5116878;27;10549;-69
2022/03/22 07:53:43;;;;;;;;;96.25;81.50;;;;;7.98;32.47;101274.03;5080821;27;10942;-71
2022/03/22 07:56:12;;;;;;;;;95.75;83.75;;;;;8.29;32.22;101277.78;5112377;28;10976;-71
2022/03/22 07:58:41;;;;;;;;;92.75;74.25;;;;;8.15;31.99;101278.16;5112274;27;10703;-69
2022/03/22 08:01:10;;;;;;;;;91.75;76.75;;;;;8.24;31.88;101274.09;5076244;28;10598;-73
2022/03/22 08:03:40;;;;;;;;;94.00;75.00;;;;;8.59;31.17;101267.63;5088767;28;11229;-73
2022/03/22 08:06:09;;;;;;;;;89.00;69.75;;;;;8.43;31.13;101273.09;5088918;28;10289;-73
2022/03/22 08:08:43;;;;;;;;;86.50;70.00;;;;;8.78;31.45;101272.63;5087850;28;10679;-72
2022/03/22 08:11:12;;;;;;;;;90.50;72.50;;;;;8.73;31.04;101270.69;5088511;28;10200;-75
2022/03/22 08:13:41;;;;;;;;;89.50;69.00;;;;;8.76;31.27;101276.91;5051914;28;10182;-72
2022/03/22 08:16:09;;;;;;;;;88.00;70.50;;;;;9.08;30.71;101276.25;5062964;28;10032;-72
2022/03/22 08:18:40;;;;;;;;;92.25;73.50;;;;;9.39;31.55;101265.09;5038888;28;10453;-72
2022/03/22 08:21:09;;;;;;;;;83.00;66.25;;;;;9.78;31.01;101271.53;5072335;28;10279;-73
2022/03/22 08:23:37;;;;;;;;;88.50;65.50;;;;;9.44;30.17;101273.06;5055500;28;10061;-74
2022/03/22 08:26:06;;;;;;;;;89.50;72.00;;;;;9.56;30.20;101268.22;5089161;28;10130;-71
2022/03/22 08:28:35;;;;;;;;;79.00;61.67;;;;;9.90;29.36;101266.66;5071799;28;9943;-72
2022/03/22 08:31:04;;;;;;;;;87.00;69.50;;;;;9.33;29.86;101264.91;5088244;28;9507;-71
2022/03/22 08:33:33;;;;;;;;;80.75;62.50;;;;;9.81;30.61;101269.91;5092573;27;10843;-71
2022/03/22 08:36:03;;;;;;;;;84.50;64.00;;;;;10.03;29.44;101258.38;5111330;27;9643;-74
2022/03/22 08:38:32;;;;;;;;;84.50;65.75;;;;;9.50;29.99;101265.44;5111307;28;9949;-71
2022/03/22 08:41:01;;;;;;;;;84.25;66.00;;;;;9.93;30.49;101258.94;5125477;27;10060;-73
2022/03/22 08:43:30;;;;;;;;;82.50;65.75;;;;;10.01;29.97;101262.66;5113224;27;9960;-72
2022/03/22 08:46:00;;;;;;;;;83.50;65.00;;;;;9.34;31.03;101261.47;5096102;27;10128;-74
2022/03/22 08:48:29;;;;;;;;;82.75;65.25;;;;;9.58;31.25;101269.16;5113193;27;10040;-73
2022/03/22 08:50:58;;;;;;;;;86.75;68.50;;;;;9.60;30.75;101261.41;5094609;27;9967;-71
2022/03/22 08:53:30;;;;;;;;;82.25;64.75;;;;;9.72;31.42;101256.59;5092626;27;10829;-71
2022/03/22 08:56:02;;;;;;;;;88.75;71.75;;;;;9.93;31.01;101262.44;5124295;27;9980;-73
2022/03/22 08:58:32;;;;;;;;;87.00;69.00;;;;;9.08;31.35;101264.09;5095987;27;10031;-70
2022/03/22 09:01:01;;;;;;;;;77.00;60.25;;;;;8.64;32.75;101267.78;5130623;27;10041;-72
2022/03/22 09:03:32;;;;;;;;;88.00;69.75;;;;;8.97;32.04;101255.06;5108698;27;10724;-71
2022/03/22 09:06:09;;;;;;;;;81.75;63.00;;;;;9.04;32.56;101245.75;5092259;28;9900;-71
2022/03/22 09:08:41;;;;;;;;;80.75;64.50;;;;;8.97;31.53;101249.84;5092246;28;10288;-71
2022/03/22 09:11:10;;;;;;;;;83.25;65.75;;;;;8.56;32.86;101242.41;5125301;27;9816;-73
2022/03/22 09:13:41;;;;;;;;;84.00;66.75;;;;;8.44;32.72;101241.97;5110612;27;9944;-72
2022/03/22 09:16:14;;;;;;;;;87.50;65.50;;;;;8.25;33.09;101239.50;5091861;28;9956;-73
2022/03/22 09:18:46;;;;;;;;;87.75;71.00;;;;;8.27;34.02;101230.94;5110048;27;10085;-72
2022/03/22 09:21:15;;;;;;;;;89.75;71.75;;;;;8.58;33.42;101222.53;5124958;27;10162;-71
2022/03/22 09:23:45;;;;;;;;;88.50;70.50;;;;;8.39;33.49;101217.47;5110005;28;10211;-72
2022/03/22 09:26:14;;;;;;;;;92.00;74.25;;;;;8.38;33.94;101213.13;5124785;27;10139;-72
2022/03/22 09:28:42;;;;;;;;;85.50;66.00;;;;;8.57;32.91;101223.34;5110652;28;10403;-73
2022/03/22 09:31:11;;;;;;;;;84.25;67.00;;;;;8.56;34.01;101216.41;5073895;27;9924;-72
2022/03/22 09:33:40;;;;;;;;;92.25;72.25;;;;;8.68;34.09;101210.75;5109791;28;10259;-71
2022/03/22 09:36:09;;;;;;;;;87.75;70.25;;;;;8.67;34.05;101213.28;5058291;28;10046;-73
2022/03/22 09:38:38;;;;;;;;;84.50;67.00;;;;;8.91;33.63;101208.91;5111961;27;9945;-72
2022/03/22 09:41:08;;;;;;;;;84.75;67.25;;;;;9.12;32.89;101213.03;5123274;27;9914;-71
2022/03/22 09:43:38;;;;;;;;;84.25;67.00;;;;;9.39;32.58;101207.81;5119473;27;9864;-71
2022/03/22 09:46:09;;;;;;;;;77.00;63.25;;;;;9.17;32.53;101207.16;5117470;27;10063;-72
2022/03/22 09:48:39;;;;;;;;;85.75;66.50;;;;;9.10;33.04;101205.19;5091639;27;9770;-72
2022/03/22 09:53:54;;;;;;;;;79.25;64.00;;;;;9.69;31.56;101196.56;5124079;27;10543;-71
2022/03/22 09:56:30;;;;;;;;;80.50;64.00;;;;;9.83;31.64;101197.88;5111219;27;9760;-72
2022/03/22 09:58:59;;;;;;;;;83.25;64.75;;;;;9.83;31.45;101195.25;5092663;28;9943;-71
2022/03/22 10:01:28;;;;;;;;;83.50;65.75;;;;;9.83;31.99;101189.16;5092221;28;9726;-71
2022/03/22 10:04:03;;;;;;;;;83.00;66.75;;;;;9.67;32.17;101193.91;5073911;28;9636;-72
2022/03/22 10:06:32;;;;;;;;;83.00;65.75;;;;;9.83;31.85;101181.31;5091727;28;10166;-72
2022/03/22 10:09:01;;;;;;;;;83.00;65.50;;;;;10.26;32.35;101180.81;5109496;28;9962;-72
2022/03/22 10:11:39;;;;;;;;;77.00;61.75;;;;;10.35;30.27;101175.00;5109505;28;9733;-72
2022/03/22 10:14:14;;;;;;;;;79.00;62.25;;;;;10.30;31.12;101173.94;5091621;28;9717;-72
2022/03/22 10:16:48;;;;;;;;;80.75;65.50;;;;;10.50;30.30;101166.69;5109756;28;9933;-72
2022/03/22 10:19:22;;;;;;;;;70.25;55.50;;;;;10.75;30.08;101157.75;5109055;28;10940;-71
2022/03/22 10:21:53;;;;;;;;;71.00;55.50;;;;;10.50;30.25;101166.69;5073095;28;9534;-73
2022/03/22 10:24:22;;;;;;;;;79.50;60.75;;;;;10.56;30.28;101156.41;5058576;28;9632;-71
2022/03/22 10:26:52;;;;;;;;;77.00;60.00;;;;;10.67;29.20;101156.69;5109411;27;9496;-71
2022/03/22 10:29:20;;;;;;;;;76.50;59.25;;;;;10.84;29.72;101152.78;5073517;28;9491;-73
2022/03/22 10:31:49;;;;;;;;;72.33;58.33;;;;;10.99;28.38;101151.38;5109306;28;9655;-72
2022/03/22 10:34:28;;;;;;;;;70.67;57.67;;;;;11.23;28.23;101138.03;5109317;28;9177;-72
2022/03/22 10:36:57;;;;;;;;;69.67;54.00;;;;;11.60;27.86;101129.22;5109350;28;9381;-73
2022/03/22 10:39:26;;;;;;;;;65.00;53.00;;;;;11.96;27.78;101127.38;5091388;28;9103;-72
2022/03/22 10:42:06;;;;;;;;;73.00;58.33;;;;;11.95;26.71;101136.06;5109292;28;9115;-72
2022/03/22 10:44:36;;;;;;;;;73.33;54.67;;;;;11.74;26.78;101136.47;5119357;27;9164;-72
2022/03/22 10:47:07;;;;;;;;;64.75;52.00;;;;;11.75;26.73;101125.19;5129270;27;9148;-72
2022/03/22 10:49:36;;;;;;;;;63.25;52.50;;;;;11.89;25.96;101115.88;5129634;27;8839;-72
2022/03/22 10:52:21;;;;;;;;;66.75;52.50;;;;;12.09;25.60;101108.44;5129177;27;8873;-71
2022/03/22 10:54:49;;;;;;;;;59.00;47.75;;;;;12.21;25.78;101113.91;5092991;27;8851;-71
2022/03/22 10:57:28;;;;;;;;;63.50;50.75;;;;;12.51;25.83;101106.53;5110228;27;8879;-72
2022/03/22 10:59:59;;;;;;;;;58.25;48.00;;;;;12.40;25.73;101109.88;5129073;27;8855;-70
2022/03/22 11:02:31;;;;;;;;;57.25;47.00;;;;;12.39;25.76;101109.84;5091109;28;8870;-71
2022/03/22 11:05:03;;;;;;;;;60.50;47.50;;;;;12.43;25.86;101096.81;5109230;28;8842;-71
2022/03/22 11:07:34;;;;;;;;;54.25;45.50;;;;;12.62;25.23;101094.53;5108575;28;8850;-71
2022/03/22 11:10:03;;;;;;;;;57.75;47.50;;;;;13.04;25.57;101096.03;5109039;28;8850;-71
2022/03/22 11:12:37;;;;;;;;;49.75;41.50;;;;;13.42;25.26;101080.88;5108539;28;8869;-71
2022/03/22 11:15:07;;;;;;;;;58.00;45.50;;;;;13.83;25.01;101080.47;5108858;28;8925;-70
2022/03/22 11:17:37;;;;;;;;;54.50;45.50;;;;;14.09;24.24;101073.75;5108644;28;9645;-72
2022/03/22 11:20:09;;;;;;;;;56.25;45.25;;;;;13.56;25.00;101075.78;5108566;28;8834;-70
2022/03/22 11:22:38;;;;;;;;;58.75;45.75;;;;;13.37;25.32;101065.97;5108134;28;8866;-71
2022/03/22 11:25:11;;;;;;;;;55.75;45.25;;;;;13.23;25.72;101056.16;5089780;28;9984;-71
2022/03/22 11:27:41;;;;;;;;;63.25;47.75;;;;;13.38;25.37;101051.97;5108434;28;8865;-70
2022/03/22 11:30:10;;;;;;;;;57.00;46.50;;;;;13.23;25.26;101047.38;5108578;28;9012;-71
2022/03/22 11:35:28;;;;;;;;;55.00;45.50;;;;;13.73;25.71;101027.94;5108633;28;8866;-72
2022/03/22 11:38:00;;;;;;;;;56.00;46.75;;;;;14.04;25.25;101029.09;5090004;28;8854;-71
2022/03/22 11:43:16;;;;;;;;;56.50;46.25;;;;;14.59;24.81;101013.84;5108916;28;8973;-72
2022/03/22 11:45:49;;;;;;;;;48.75;41.50;;;;;14.61;24.75;101003.31;5108852;28;8899;-71
2022/03/22 11:48:18;;;;;;;;;52.50;45.00;;;;;14.84;24.41;101003.47;5072031;28;8862;-72
2022/03/22 11:50:48;;;;;;;;;53.50;42.25;;;;;15.19;24.29;101003.63;5108185;28;8849;-70
2022/03/22 11:53:22;;;;;;;;;58.25;45.25;;;;;15.29;23.88;101001.94;5108275;28;8984;-71
2022/03/22 11:55:53;;;;;;;;;52.75;42.75;;;;;15.36;24.20;100982.66;5108372;28;8923;-73
2022/03/22 11:58:28;;;;;;;;;49.50;42.00;;;;;15.32;23.86;100988.78;5089738;28;9618;-71
2022/03/22 12:01:17;;;;;;;;;55.50;43.00;;;;;15.39;23.95;100976.56;5107512;28;8877;-72